createdAt,value
2023-01-11T00:00:47.382Z,9.39
2023-01-11T00:01:47.361Z,9.40
2023-01-11T00:02:47.299Z,9.40
2023-01-11T00:03:47.307Z,9.39
2023-01-11T00:04:47.350Z,9.42
2023-01-11T00:05:47.303Z,9.42
2023-01-11T00:06:47.305Z,9.42
2023-01-11T00:07:47.253Z,9.44
2023-01-11T00:08:47.267Z,9.45
2023-01-11T00:09:47.221Z,9.47
2023-01-11T00:10:47.226Z,9.45
2023-01-11T00:11:47.226Z,9.47
2023-01-11T00:12:47.194Z,9.47
2023-01-11T00:13:47.235Z,9.47
2023-01-11T00:14:47.183Z,9.47
2023-01-11T00:15:47.216Z,9.48
2023-01-11T00:16:47.160Z,9.48
2023-01-11T00:17:47.145Z,9.48
2023-01-11T00:18:47.158Z,9.48
2023-01-11T00:19:47.149Z,9.52
2023-01-11T00:20:47.122Z,9.49
2023-01-11T00:21:47.102Z,9.49
2023-01-11T00:22:47.220Z,9.51
2023-01-11T00:23:47.120Z,9.52
2023-01-11T00:24:47.072Z,9.52
2023-01-11T00:25:47.064Z,9.55
2023-01-11T00:26:47.044Z,9.54
2023-01-11T00:27:47.070Z,9.56
2023-01-11T00:28:47.040Z,9.55
2023-01-11T00:29:47.040Z,9.56
2023-01-11T00:30:47.010Z,9.58
2023-01-11T00:31:47.013Z,9.58
2023-01-11T00:32:46.984Z,9.58
2023-01-11T00:33:47.009Z,9.59
2023-01-11T00:34:46.960Z,9.58
2023-01-11T00:35:47.616Z,9.62
2023-01-11T00:36:46.965Z,9.58
2023-01-11T00:37:46.932Z,9.62
2023-01-11T00:38:47.112Z,9.63
2023-01-11T00:39:46.910Z,9.62
2023-01-11T00:40:46.932Z,9.62
2023-01-11T00:41:46.893Z,9.63
2023-01-11T00:42:46.868Z,9.63
2023-01-11T00:43:46.885Z,9.64
2023-01-11T00:44:46.850Z,9.64
2023-01-11T00:45:46.904Z,9.67
2023-01-11T00:46:46.837Z,9.67
2023-01-11T00:47:46.834Z,9.67
2023-01-11T00:48:46.833Z,9.66
2023-01-11T00:49:46.827Z,9.69
2023-01-11T00:50:46.806Z,9.69
2023-01-11T00:51:46.777Z,9.69
2023-01-11T00:52:46.767Z,9.67
2023-01-11T00:53:46.785Z,9.69
2023-01-11T00:54:46.766Z,9.70
2023-01-11T00:55:46.773Z,9.72
2023-01-11T00:56:46.733Z,9.72
2023-01-11T00:57:46.718Z,9.73
2023-01-11T00:58:46.720Z,9.74
2023-01-11T00:59:46.706Z,9.74
2023-01-11T01:00:46.696Z,9.73
2023-01-11T01:01:46.693Z,9.76
2023-01-11T01:02:46.726Z,9.76
2023-01-11T01:03:46.690Z,9.77
2023-01-11T01:04:46.655Z,9.77
2023-01-11T01:05:46.627Z,9.80
2023-01-11T01:06:46.660Z,9.77
2023-01-11T01:07:46.629Z,9.81
2023-01-11T01:08:46.616Z,9.77
2023-01-11T01:09:46.603Z,9.81
2023-01-11T01:10:46.602Z,9.82
2023-01-11T01:11:46.627Z,9.81
2023-01-11T01:12:46.606Z,9.82
2023-01-11T01:13:46.586Z,9.84
2023-01-11T01:14:46.579Z,9.85
2023-01-11T01:15:46.596Z,9.84
2023-01-11T01:16:46.522Z,9.85
2023-01-11T01:17:46.535Z,9.88
2023-01-11T01:18:46.507Z,9.88
2023-01-11T01:19:46.518Z,9.88
2023-01-11T01:20:46.476Z,9.90
2023-01-11T01:21:46.464Z,9.90
2023-01-11T01:22:46.458Z,9.88
2023-01-11T01:23:46.446Z,9.91
2023-01-11T01:24:46.465Z,9.91
2023-01-11T01:25:46.414Z,9.91
2023-01-11T01:26:46.425Z,9.94
2023-01-11T01:27:46.395Z,9.94
2023-01-11T01:28:46.394Z,9.94
2023-01-11T01:29:46.395Z,9.97
2023-01-11T01:30:46.366Z,9.99
2023-01-11T01:31:46.354Z,9.97
2023-01-11T01:32:46.351Z,10.00
2023-01-11T01:33:46.334Z,10.00
2023-01-11T01:34:46.343Z,10.02
2023-01-11T01:35:46.317Z,10.02
2023-01-11T01:36:46.338Z,10.02
2023-01-11T01:37:46.303Z,10.02
2023-01-11T01:38:46.293Z,10.02
2023-01-11T01:39:46.347Z,10.03
2023-01-11T01:40:46.276Z,10.05
2023-01-11T01:41:46.253Z,10.06
2023-01-11T01:42:46.253Z,10.07
2023-01-11T01:43:47.678Z,10.07
2023-01-11T01:44:46.292Z,10.09
2023-01-11T01:45:46.203Z,10.09
2023-01-11T01:46:46.205Z,10.09
2023-01-11T01:47:46.186Z,10.09
2023-01-11T01:48:46.185Z,10.09
2023-01-11T01:49:46.162Z,10.12
2023-01-11T01:50:46.170Z,10.10
2023-01-11T01:51:46.212Z,10.10
2023-01-11T01:52:46.133Z,10.12
2023-01-11T01:53:46.132Z,10.13
2023-01-11T01:54:46.117Z,10.15
2023-01-11T01:55:46.129Z,10.15
2023-01-11T01:56:46.154Z,10.15
2023-01-11T01:57:46.082Z,10.18
2023-01-11T01:58:46.795Z,10.17
2023-01-11T01:59:46.050Z,10.18
2023-01-11T02:00:46.053Z,10.18
2023-01-11T02:01:46.082Z,10.20
2023-01-11T02:02:46.088Z,10.21
2023-01-11T02:03:46.022Z,10.20
2023-01-11T02:04:46.001Z,10.21
2023-01-11T02:05:45.991Z,10.24
2023-01-11T02:06:46.019Z,10.23
2023-01-11T02:07:46.003Z,10.21
2023-01-11T02:08:45.961Z,10.23
2023-01-11T02:09:45.948Z,10.23
2023-01-11T02:10:45.946Z,10.23
2023-01-11T02:11:45.929Z,10.27
2023-01-11T02:12:45.915Z,10.27
2023-01-11T02:13:45.952Z,10.27
2023-01-11T02:14:45.892Z,10.27
2023-01-11T02:15:45.900Z,10.28
2023-01-11T02:16:45.871Z,10.30
2023-01-11T02:17:45.918Z,10.31
2023-01-11T02:18:45.850Z,10.31
2023-01-11T02:19:45.837Z,10.31
2023-01-11T02:20:45.847Z,10.30
2023-01-11T02:21:45.815Z,10.31
2023-01-11T02:22:45.801Z,10.33
2023-01-11T02:23:45.803Z,10.34
2023-01-11T02:24:45.823Z,10.33
2023-01-11T02:25:45.766Z,10.36
2023-01-11T02:26:45.756Z,10.38
2023-01-11T02:27:45.764Z,10.36
2023-01-11T02:28:45.740Z,10.39
2023-01-11T02:29:45.721Z,10.38
2023-01-11T02:30:45.723Z,10.38
2023-01-11T02:31:45.706Z,10.41
2023-01-11T02:32:45.699Z,10.41
2023-01-11T02:33:45.675Z,10.42
2023-01-11T02:34:45.719Z,10.41
2023-01-11T02:35:45.660Z,10.43
2023-01-11T02:36:45.652Z,10.43
2023-01-11T02:37:45.674Z,10.45
2023-01-11T02:38:45.631Z,10.43
2023-01-11T02:39:45.616Z,10.43
2023-01-11T02:40:45.633Z,10.43
2023-01-11T02:41:45.578Z,10.45
2023-01-11T02:42:45.579Z,10.43
2023-01-11T02:43:45.569Z,10.45
2023-01-11T02:44:45.675Z,10.45
2023-01-11T02:45:45.559Z,10.46
2023-01-11T02:46:45.574Z,10.45
2023-01-11T02:47:45.552Z,10.43
2023-01-11T02:48:45.509Z,10.42
2023-01-11T02:49:45.489Z,10.46
2023-01-11T02:50:45.487Z,10.45
2023-01-11T02:51:45.467Z,10.45
2023-01-11T02:52:45.472Z,10.43
2023-01-11T02:53:45.450Z,10.43
2023-01-11T02:54:45.485Z,10.46
2023-01-11T02:55:45.438Z,10.46
2023-01-11T02:56:45.430Z,10.46
2023-01-11T02:57:45.409Z,10.46
2023-01-11T02:58:45.429Z,10.45
2023-01-11T02:59:45.396Z,10.49
2023-01-11T03:00:45.405Z,10.49
2023-01-11T03:01:45.396Z,10.48
2023-01-11T03:02:45.430Z,10.49
2023-01-11T03:03:45.338Z,10.51
2023-01-11T03:04:45.335Z,10.48
2023-01-11T03:05:45.338Z,10.51
2023-01-11T03:06:45.316Z,10.51
2023-01-11T03:07:45.298Z,10.53
2023-01-11T03:08:45.298Z,10.51
2023-01-11T03:09:45.278Z,10.49
2023-01-11T03:10:45.281Z,10.53
2023-01-11T03:11:45.268Z,10.53
2023-01-11T03:12:45.249Z,10.53
2023-01-11T03:13:45.277Z,10.51
2023-01-11T03:14:45.228Z,10.53
2023-01-11T03:15:45.235Z,10.53
2023-01-11T03:16:45.216Z,10.55
2023-01-11T03:17:45.203Z,10.55
2023-01-11T03:18:45.199Z,10.55
2023-01-11T03:19:45.166Z,10.55
2023-01-11T03:20:45.156Z,10.53
2023-01-11T03:21:45.148Z,10.57
2023-01-11T03:22:45.137Z,10.55
2023-01-11T03:23:45.124Z,10.57
2023-01-11T03:24:45.122Z,10.53
2023-01-11T03:25:45.105Z,10.57
2023-01-11T03:26:45.095Z,10.51
2023-01-11T03:27:45.076Z,10.58
2023-01-11T03:28:45.071Z,10.55
2023-01-11T03:29:45.055Z,10.51
2023-01-11T03:30:45.044Z,10.53
2023-01-11T03:31:45.087Z,10.49
2023-01-11T03:32:45.027Z,10.53
2023-01-11T03:33:45.007Z,10.53
2023-01-11T03:34:44.996Z,10.51
2023-01-11T03:35:44.985Z,10.53
2023-01-11T03:36:44.985Z,10.49
2023-01-11T03:37:44.969Z,10.51
2023-01-11T03:38:44.957Z,10.53
2023-01-11T03:39:44.953Z,10.51
2023-01-11T03:40:44.939Z,10.53
2023-01-11T03:41:44.944Z,10.55
2023-01-11T03:42:44.914Z,10.51
2023-01-11T03:43:44.912Z,10.53
2023-01-11T03:44:44.899Z,10.51
2023-01-11T03:45:44.874Z,10.51
2023-01-11T03:46:44.923Z,10.51
2023-01-11T03:47:44.853Z,10.53
2023-01-11T03:48:44.861Z,10.55
2023-01-11T03:49:44.835Z,10.53
2023-01-11T03:50:44.825Z,10.51
2023-01-11T03:51:44.825Z,10.53
2023-01-11T03:52:44.809Z,10.53
2023-01-11T03:53:44.789Z,10.55
2023-01-11T03:54:44.773Z,10.55
2023-01-11T03:55:44.775Z,10.53
2023-01-11T03:56:44.765Z,10.53
2023-01-11T03:57:44.754Z,10.55
2023-01-11T03:58:44.735Z,10.55
2023-01-11T03:59:44.741Z,10.55
2023-01-11T04:00:44.751Z,10.53
2023-01-11T04:01:44.718Z,10.57
2023-01-11T04:02:44.707Z,10.55
2023-01-11T04:03:44.685Z,10.57
2023-01-11T04:04:44.683Z,10.57
2023-01-11T04:05:44.675Z,10.55
2023-01-11T04:06:44.684Z,10.55
2023-01-11T04:07:44.634Z,10.55
2023-01-11T04:08:44.624Z,10.58
2023-01-11T04:09:44.615Z,10.57
2023-01-11T04:10:44.603Z,10.57
2023-01-11T04:11:44.612Z,10.57
2023-01-11T04:12:44.584Z,10.57
2023-01-11T04:13:44.605Z,10.55
2023-01-11T04:14:44.567Z,10.57
2023-01-11T04:15:44.552Z,10.57
2023-01-11T04:16:44.553Z,10.58
2023-01-11T04:17:44.533Z,10.61
2023-01-11T04:18:44.545Z,10.58
2023-01-11T04:19:44.514Z,10.61
2023-01-11T04:20:44.492Z,10.58
2023-01-11T04:21:44.501Z,10.58
2023-01-11T04:22:44.474Z,10.59
2023-01-11T04:23:44.468Z,10.59
2023-01-11T04:24:44.461Z,10.59
2023-01-11T04:25:44.481Z,10.61
2023-01-11T04:26:44.451Z,10.61
2023-01-11T04:27:44.445Z,10.59
2023-01-11T04:28:44.420Z,10.59
2023-01-11T04:29:44.459Z,10.61
2023-01-11T04:30:44.502Z,10.59
2023-01-11T04:31:44.585Z,10.62
2023-01-11T04:32:44.372Z,10.64
2023-01-11T04:33:44.371Z,10.62
2023-01-11T04:34:44.384Z,10.64
2023-01-11T04:35:44.347Z,10.64
2023-01-11T04:36:44.342Z,10.65
2023-01-11T04:37:44.323Z,10.65
2023-01-11T04:38:44.321Z,10.65
2023-01-11T04:39:44.293Z,10.65
2023-01-11T04:40:44.271Z,10.67
2023-01-11T04:41:44.285Z,10.65
2023-01-11T04:42:44.256Z,10.65
2023-01-11T04:43:44.253Z,10.68
2023-01-11T04:44:44.230Z,10.65
2023-01-11T04:45:44.323Z,10.69
2023-01-11T04:46:44.223Z,10.68
2023-01-11T04:47:44.266Z,10.68
2023-01-11T04:48:44.195Z,10.69
2023-01-11T04:49:44.217Z,10.69
2023-01-11T04:50:44.237Z,10.69
2023-01-11T04:51:44.189Z,10.71
2023-01-11T04:52:44.144Z,10.69
2023-01-11T04:53:44.182Z,10.69
2023-01-11T04:54:44.128Z,10.71
2023-01-11T04:55:44.181Z,10.72
2023-01-11T04:56:44.108Z,10.71
2023-01-11T04:57:44.112Z,10.72
2023-01-11T04:58:44.089Z,10.72
2023-01-11T04:59:44.083Z,10.72
2023-01-11T05:00:44.116Z,10.72
2023-01-11T05:01:44.089Z,10.76
2023-01-11T05:02:44.049Z,10.72
2023-01-11T05:03:44.050Z,10.76
2023-01-11T05:04:44.019Z,10.75
2023-01-11T05:05:44.018Z,10.75
2023-01-11T05:06:44.063Z,10.75
2023-01-11T05:07:44.002Z,10.76
2023-01-11T05:08:43.978Z,10.76
2023-01-11T05:09:43.978Z,10.76
2023-01-11T05:10:43.958Z,10.77
2023-01-11T05:11:44.143Z,10.77
2023-01-11T05:12:43.973Z,10.77
2023-01-11T05:13:43.973Z,10.80
2023-01-11T05:14:43.909Z,10.80
2023-01-11T05:15:43.917Z,10.82
2023-01-11T05:16:43.968Z,10.82
2023-01-11T05:17:43.903Z,10.82
2023-01-11T05:18:43.880Z,10.82
2023-01-11T05:19:43.868Z,10.82
2023-01-11T05:20:43.847Z,10.83
2023-01-11T05:21:43.855Z,10.83
2023-01-11T05:22:43.840Z,10.83
2023-01-11T05:23:43.827Z,10.84
2023-01-11T05:24:43.827Z,10.82
2023-01-11T05:25:43.808Z,10.83
2023-01-11T05:26:43.778Z,10.84
2023-01-11T05:27:43.793Z,10.87
2023-01-11T05:28:43.767Z,10.84
2023-01-11T05:29:43.766Z,10.87
2023-01-11T05:30:43.737Z,10.86
2023-01-11T05:31:43.798Z,10.87
2023-01-11T05:32:43.734Z,10.87
2023-01-11T05:33:43.713Z,10.90
2023-01-11T05:34:43.699Z,10.89
2023-01-11T05:35:43.687Z,10.92
2023-01-11T05:36:43.730Z,10.90
2023-01-11T05:37:43.680Z,10.89
2023-01-11T05:38:43.647Z,10.89
2023-01-11T05:39:43.649Z,10.90
2023-01-11T05:40:43.637Z,10.90
2023-01-11T05:41:43.629Z,10.92
2023-01-11T05:42:43.630Z,10.90
2023-01-11T05:43:43.605Z,10.94
2023-01-11T05:44:43.583Z,10.95
2023-01-11T05:45:43.605Z,10.95
2023-01-11T05:46:43.585Z,10.95
2023-01-11T05:47:43.620Z,10.97
2023-01-11T05:48:43.547Z,10.95
2023-01-11T05:49:43.546Z,10.97
2023-01-11T05:50:43.532Z,10.97
2023-01-11T05:51:43.521Z,10.98
2023-01-11T05:52:43.511Z,10.98
2023-01-11T05:53:43.496Z,10.97
2023-01-11T05:54:43.489Z,11.00
2023-01-11T05:55:43.481Z,10.98
2023-01-11T05:56:43.471Z,11.00
2023-01-11T05:57:43.463Z,11.00
2023-01-11T05:58:43.455Z,11.02
2023-01-11T05:59:43.492Z,11.01
2023-01-11T06:00:43.414Z,11.01
2023-01-11T06:01:43.456Z,11.02
2023-01-11T06:02:43.511Z,11.02
2023-01-11T06:03:43.392Z,11.02
2023-01-11T06:04:43.394Z,11.04
2023-01-11T06:05:45.851Z,11.05
2023-01-11T06:06:43.367Z,11.04
2023-01-11T06:07:43.348Z,11.04
2023-01-11T06:08:43.355Z,11.04
2023-01-11T06:09:43.318Z,11.05
2023-01-11T06:10:43.320Z,11.07
2023-01-11T06:11:43.294Z,11.05
2023-01-11T06:12:43.275Z,11.07
2023-01-11T06:13:43.287Z,11.07
2023-01-11T06:14:43.259Z,11.08
2023-01-11T06:15:43.254Z,11.08
2023-01-11T06:16:43.321Z,11.07
2023-01-11T06:17:43.267Z,11.08
2023-01-11T06:18:43.239Z,11.10
2023-01-11T06:19:43.234Z,11.10
2023-01-11T06:20:43.193Z,11.08
2023-01-11T06:21:43.195Z,11.10
2023-01-11T06:22:43.173Z,11.10
2023-01-11T06:23:43.186Z,11.12
2023-01-11T06:24:43.159Z,11.12
2023-01-11T06:25:45.245Z,11.13
2023-01-11T06:26:43.173Z,11.12
2023-01-11T06:27:43.139Z,11.15
2023-01-11T06:28:43.164Z,11.15
2023-01-11T06:29:43.109Z,11.15
2023-01-11T06:30:43.136Z,11.13
2023-01-11T06:31:43.085Z,11.16
2023-01-11T06:32:43.097Z,11.16
2023-01-11T06:33:43.139Z,11.16
2023-01-11T06:34:43.053Z,11.15
2023-01-11T06:35:43.039Z,11.19
2023-01-11T06:36:43.035Z,11.18
2023-01-11T06:37:43.013Z,11.19
2023-01-11T06:38:43.016Z,11.19
2023-01-11T06:39:43.001Z,11.20
2023-01-11T06:40:43.002Z,11.19
2023-01-11T06:41:42.970Z,11.19
2023-01-11T06:42:42.969Z,11.20
2023-01-11T06:43:42.959Z,11.22
2023-01-11T06:44:42.984Z,11.19
2023-01-11T06:45:42.922Z,11.23
2023-01-11T06:46:42.913Z,11.23
2023-01-11T06:47:42.914Z,11.23
2023-01-11T06:48:42.925Z,11.25
2023-01-11T06:49:42.882Z,11.26
2023-01-11T06:50:42.882Z,11.25
2023-01-11T06:51:42.913Z,11.27
2023-01-11T06:52:42.881Z,11.26
2023-01-11T06:53:42.886Z,11.27
2023-01-11T06:54:42.829Z,11.27
2023-01-11T06:55:42.826Z,11.30
2023-01-11T06:56:42.811Z,11.30
2023-01-11T06:57:42.811Z,11.31
2023-01-11T06:58:43.991Z,11.30
2023-01-11T06:59:42.782Z,11.31
2023-01-11T07:00:42.780Z,11.30
2023-01-11T07:01:42.863Z,11.33
2023-01-11T07:02:42.740Z,11.33
2023-01-11T07:03:42.759Z,11.34
2023-01-11T07:04:42.791Z,11.33
2023-01-11T07:05:42.671Z,11.34
2023-01-11T07:06:42.651Z,11.37
2023-01-11T07:07:42.640Z,11.35
2023-01-11T07:08:42.653Z,11.34
2023-01-11T07:09:42.612Z,11.40
2023-01-11T07:10:42.609Z,11.37
2023-01-11T07:11:42.613Z,11.37
2023-01-11T07:12:42.616Z,11.40
2023-01-11T07:13:42.591Z,11.38
2023-01-11T07:14:42.564Z,11.40
2023-01-11T07:15:42.564Z,11.41
2023-01-11T07:16:42.563Z,11.40
2023-01-11T07:17:42.532Z,11.41
2023-01-11T07:18:42.510Z,11.41
2023-01-11T07:19:42.568Z,11.44
2023-01-11T07:20:42.499Z,11.44
2023-01-11T07:21:42.482Z,11.44
2023-01-11T07:22:42.475Z,11.48
2023-01-11T07:23:42.464Z,11.45
2023-01-11T07:24:42.451Z,11.48
2023-01-11T07:25:42.452Z,11.49
2023-01-11T07:26:42.431Z,11.48
2023-01-11T07:27:42.430Z,11.51
2023-01-11T07:28:42.401Z,11.48
2023-01-11T07:29:42.421Z,11.52
2023-01-11T07:30:56.741Z,11.51
2023-01-11T07:31:43.389Z,11.51
2023-01-11T07:32:42.370Z,11.51
2023-01-11T07:33:42.358Z,11.52
2023-01-11T07:34:42.352Z,11.55
2023-01-11T07:35:42.342Z,11.55
2023-01-11T07:36:42.318Z,11.52
2023-01-11T07:37:42.309Z,11.55
2023-01-11T07:38:42.292Z,11.56
2023-01-11T07:39:43.812Z,11.55
2023-01-11T07:40:42.271Z,11.55
2023-01-11T07:41:42.271Z,11.58
2023-01-11T07:42:42.259Z,11.56
2023-01-11T07:43:42.247Z,11.59
2023-01-11T07:44:42.262Z,11.58
2023-01-11T07:45:45.667Z,11.60
2023-01-11T07:46:42.401Z,11.59
2023-01-11T07:47:42.205Z,11.60
2023-01-11T07:48:42.230Z,11.62
2023-01-11T07:49:42.198Z,11.60
2023-01-11T07:50:44.566Z,11.63
2023-01-11T07:51:42.188Z,11.65
2023-01-11T07:52:42.147Z,11.62
2023-01-11T07:53:42.169Z,11.65
2023-01-11T07:54:42.164Z,11.67
2023-01-11T07:55:42.126Z,11.67
2023-01-11T07:56:42.102Z,11.68
2023-01-11T07:57:42.115Z,11.68
2023-01-11T07:58:42.124Z,11.70
2023-01-11T07:59:42.129Z,11.71
2023-01-11T08:00:42.081Z,11.71
2023-01-11T08:01:42.071Z,11.73
2023-01-11T08:02:42.174Z,11.73
2023-01-11T08:03:42.145Z,11.74
2023-01-11T08:04:42.045Z,11.76
2023-01-11T08:05:42.035Z,11.78
2023-01-11T08:06:42.031Z,11.77
2023-01-11T08:07:41.991Z,11.78
2023-01-11T08:08:41.968Z,11.77
2023-01-11T08:09:42.027Z,11.78
2023-01-11T08:10:42.281Z,11.78
2023-01-11T08:11:41.969Z,11.80
2023-01-11T08:12:41.936Z,11.80
2023-01-11T08:13:41.940Z,11.80
2023-01-11T08:14:41.941Z,11.83
2023-01-11T08:15:41.918Z,11.83
2023-01-11T08:16:41.897Z,11.83
2023-01-11T08:17:41.878Z,11.83
2023-01-11T08:18:41.880Z,11.85
2023-01-11T08:19:41.887Z,11.88
2023-01-11T08:20:41.854Z,11.86
2023-01-11T08:21:41.879Z,11.88
2023-01-11T08:22:41.852Z,11.88
2023-01-11T08:23:41.819Z,11.89
2023-01-11T08:24:41.838Z,11.86
2023-01-11T08:25:41.807Z,11.91
2023-01-11T08:26:41.847Z,11.89
2023-01-11T08:27:41.808Z,11.95
2023-01-11T08:28:41.769Z,11.96
2023-01-11T08:29:41.776Z,11.95
2023-01-11T08:30:41.785Z,11.96
2023-01-11T08:31:41.735Z,11.97
2023-01-11T08:32:41.752Z,11.97
2023-01-11T08:33:41.706Z,11.99
2023-01-11T08:34:41.717Z,11.97
2023-01-11T08:35:41.749Z,12.00
2023-01-11T08:36:41.685Z,11.99
2023-01-11T08:37:41.675Z,12.02
2023-01-11T08:38:41.668Z,12.05
2023-01-11T08:39:41.664Z,12.03
2023-01-11T08:40:41.646Z,12.07
2023-01-11T08:41:41.617Z,12.08
2023-01-11T08:42:41.676Z,12.08
2023-01-11T08:43:41.607Z,12.08
2023-01-11T08:44:41.597Z,12.10
2023-01-11T08:45:41.634Z,12.11
2023-01-11T08:46:41.638Z,12.10
2023-01-11T08:47:41.566Z,12.11
2023-01-11T08:48:41.577Z,12.12
2023-01-11T08:49:41.577Z,12.11
2023-01-11T08:50:41.565Z,12.11
2023-01-11T08:51:41.517Z,12.11
2023-01-11T08:52:41.520Z,12.12
2023-01-11T08:53:41.503Z,12.12
2023-01-11T08:54:41.523Z,12.12
2023-01-11T08:55:41.499Z,12.15
2023-01-11T08:56:41.476Z,12.15
2023-01-11T08:57:41.462Z,12.14
2023-01-11T08:58:41.457Z,12.15
2023-01-11T08:59:41.432Z,12.17
2023-01-11T09:00:41.437Z,12.15
2023-01-11T09:01:41.497Z,12.18
2023-01-11T09:02:41.507Z,12.20
2023-01-11T09:03:41.465Z,12.20
2023-01-11T09:04:41.379Z,12.20
2023-01-11T09:05:41.412Z,12.18
2023-01-11T09:06:41.364Z,12.18
2023-01-11T09:07:41.348Z,12.18
2023-01-11T09:08:41.337Z,12.21
2023-01-11T09:09:41.336Z,12.20
2023-01-11T09:10:41.325Z,12.21
2023-01-11T09:11:41.399Z,12.17
2023-01-11T09:12:41.349Z,12.17
2023-01-11T09:13:41.309Z,12.18
2023-01-11T09:14:41.275Z,12.17
2023-01-11T09:15:41.335Z,12.20
2023-01-11T09:16:41.331Z,12.20
2023-01-11T09:17:41.253Z,12.21
2023-01-11T09:18:41.237Z,12.21
2023-01-11T09:19:41.240Z,12.20
2023-01-11T09:20:41.249Z,12.21
2023-01-11T09:21:41.203Z,12.21
2023-01-11T09:22:41.202Z,12.23
2023-01-11T09:23:41.186Z,12.23
2023-01-11T09:24:41.191Z,12.25
2023-01-11T09:25:41.177Z,12.26
2023-01-11T09:26:41.220Z,12.28
2023-01-11T09:27:41.178Z,12.30
2023-01-11T09:28:41.157Z,12.30
2023-01-11T09:29:41.165Z,12.32
2023-01-11T09:30:41.130Z,12.33
2023-01-11T09:31:41.235Z,12.32
2023-01-11T09:32:41.153Z,12.32
2023-01-11T09:33:41.066Z,12.33
2023-01-11T09:34:41.130Z,12.35
2023-01-11T09:35:42.024Z,12.33
2023-01-11T09:36:41.057Z,12.33
2023-01-11T09:37:41.060Z,12.35
2023-01-11T09:38:41.033Z,12.33
2023-01-11T09:39:41.041Z,12.35
2023-01-11T09:40:41.003Z,12.33
2023-01-11T09:41:41.055Z,12.36
2023-01-11T09:42:40.986Z,12.36
2023-01-11T09:43:40.966Z,12.36
2023-01-11T09:44:40.955Z,12.36
2023-01-11T09:45:40.947Z,12.36
2023-01-11T09:46:40.957Z,12.36
2023-01-11T09:47:40.992Z,12.35
2023-01-11T09:48:40.932Z,12.37
2023-01-11T09:49:40.909Z,12.36
2023-01-11T09:50:40.900Z,12.37
2023-01-11T09:51:40.954Z,12.35
2023-01-11T09:52:40.922Z,12.36
2023-01-11T09:53:40.873Z,12.36
2023-01-11T09:54:40.884Z,12.36
2023-01-11T09:55:40.836Z,12.37
2023-01-11T09:56:40.835Z,12.35
2023-01-11T09:57:40.858Z,12.39
2023-01-11T09:58:40.841Z,12.39
2023-01-11T09:59:40.796Z,12.37
2023-01-11T10:00:40.821Z,12.39
2023-01-11T10:01:40.795Z,12.40
2023-01-11T10:02:40.763Z,12.40
2023-01-11T10:03:40.756Z,12.43
2023-01-11T10:04:40.767Z,12.43
2023-01-11T10:05:40.733Z,12.44
2023-01-11T10:06:40.746Z,12.43
2023-01-11T10:07:40.735Z,12.44
2023-01-11T10:18:30.860Z,12.48
2023-01-11T10:18:33.920Z,12.47
2023-01-11T10:18:37.851Z,12.47
2023-01-11T10:18:44.793Z,12.50
2023-01-11T10:19:42.140Z,12.47
2023-01-11T10:20:40.677Z,12.45
2023-01-11T10:21:40.573Z,12.48
2023-01-11T10:22:40.553Z,12.48
2023-01-11T10:23:40.563Z,12.47
2023-01-11T10:24:41.326Z,12.43
2023-01-11T10:25:40.513Z,12.48
2023-01-11T10:26:40.556Z,12.45
2023-01-11T10:27:40.532Z,12.50
2023-01-11T10:28:40.502Z,12.48
2023-01-11T10:29:40.591Z,12.51
2023-01-11T10:30:41.830Z,12.51
2023-01-11T10:31:40.506Z,12.53
2023-01-11T10:32:40.472Z,12.50
2023-01-11T10:33:40.442Z,12.53
2023-01-11T10:34:40.436Z,12.53
2023-01-11T10:35:40.445Z,12.54
2023-01-11T10:36:40.436Z,12.54
2023-01-11T10:37:40.397Z,12.57
2023-01-11T10:38:40.383Z,12.57
2023-01-11T10:39:40.386Z,12.55
2023-01-11T10:40:40.395Z,12.55
2023-01-11T10:41:42.910Z,12.57
2023-01-11T10:42:40.698Z,12.58
2023-01-11T10:43:40.324Z,12.57
2023-01-11T10:44:40.333Z,12.57
2023-01-11T10:45:40.360Z,12.58
2023-01-11T10:46:40.313Z,12.58
2023-01-11T10:47:40.309Z,12.62
2023-01-11T10:48:40.285Z,12.62
2023-01-11T10:49:40.265Z,12.65
2023-01-11T10:50:40.264Z,12.68
2023-01-11T10:51:40.243Z,12.66
2023-01-11T10:52:40.243Z,12.68
2023-01-11T10:53:40.231Z,12.69
2023-01-11T10:54:40.237Z,12.69
2023-01-11T10:55:40.212Z,12.69
2023-01-11T10:56:42.906Z,12.69
2023-01-11T10:58:00.769Z,12.69
2023-01-11T10:58:41.252Z,12.72
2023-01-11T10:59:40.184Z,12.70
2023-01-11T11:00:40.365Z,12.69
2023-01-11T11:01:40.182Z,12.72
2023-01-11T11:02:40.165Z,12.72
2023-01-11T11:03:40.149Z,12.75
2023-01-11T11:04:40.140Z,12.73
2023-01-11T11:05:40.117Z,12.76
2023-01-11T11:06:40.124Z,12.75
2023-01-11T11:07:40.092Z,12.80
2023-01-11T11:08:40.081Z,12.81
2023-01-11T11:09:40.068Z,12.84
2023-01-11T11:10:40.062Z,12.86
2023-01-11T11:11:40.034Z,12.87
2023-01-11T11:12:40.031Z,12.88
2023-01-11T11:13:42.475Z,12.88
2023-01-11T11:14:40.004Z,12.90
2023-01-11T11:15:39.991Z,12.91
2023-01-11T11:16:40.043Z,12.90
2023-01-11T11:17:39.983Z,12.93
2023-01-11T11:18:39.957Z,12.94
2023-01-11T11:19:41.839Z,12.99
2023-01-11T11:20:39.931Z,13.02
2023-01-11T11:21:40.049Z,13.02
2023-01-11T11:22:39.944Z,13.03
2023-01-11T11:23:39.899Z,13.05
2023-01-11T11:24:39.923Z,13.05
2023-01-11T11:25:41.466Z,13.06
2023-01-11T11:26:39.898Z,13.09
2023-01-11T11:27:39.891Z,13.11
2023-01-11T11:28:39.850Z,13.12
2023-01-11T11:29:39.838Z,13.13
2023-01-11T11:30:39.835Z,13.17
2023-01-11T11:31:42.049Z,13.21
2023-01-11T11:32:39.825Z,13.23
2023-01-11T11:33:39.803Z,13.26
2023-01-11T11:34:39.795Z,13.30
2023-01-11T11:35:39.809Z,13.36
2023-01-11T11:36:39.771Z,13.36
2023-01-11T11:37:39.780Z,13.39
2023-01-11T11:38:39.753Z,13.40
2023-01-11T11:39:39.732Z,13.45
2023-01-11T11:40:39.720Z,13.47
2023-01-11T11:41:39.711Z,13.49
2023-01-11T11:42:39.710Z,13.49
2023-01-11T11:43:39.689Z,13.52
2023-01-11T11:44:39.689Z,13.55
2023-01-11T11:45:39.760Z,13.61
2023-01-11T11:46:39.668Z,13.67
2023-01-11T11:47:39.652Z,13.70
2023-01-11T11:48:39.646Z,13.71
2023-01-11T11:49:39.626Z,13.71
2023-01-11T11:50:45.063Z,13.75
2023-01-11T11:51:40.611Z,13.75
2023-01-11T11:52:39.664Z,13.76
2023-01-11T11:53:39.611Z,13.76
2023-01-11T11:54:39.631Z,13.79
2023-01-11T11:55:39.617Z,13.86
2023-01-11T11:56:39.559Z,13.95
2023-01-11T11:57:39.583Z,14.04
2023-01-11T11:58:39.548Z,14.15
2023-01-11T11:59:39.533Z,14.26
2023-01-11T12:00:39.520Z,14.33
2023-01-11T12:01:39.520Z,14.38
2023-01-11T12:02:39.480Z,14.43
2023-01-11T12:03:39.472Z,14.48
2023-01-11T12:04:39.470Z,14.58
2023-01-11T12:05:39.448Z,14.66
2023-01-11T12:06:39.449Z,14.74
2023-01-11T12:07:53.502Z,14.78
2023-01-11T12:08:40.420Z,14.82
2023-01-11T12:09:39.420Z,14.81
2023-01-11T12:10:39.409Z,14.85
2023-01-11T12:11:39.395Z,14.82
2023-01-11T12:12:39.404Z,14.85
2023-01-11T12:13:39.370Z,14.81
2023-01-11T12:14:39.371Z,14.79
2023-01-11T12:15:39.339Z,14.81
2023-01-11T12:16:39.349Z,14.78
2023-01-11T12:17:39.317Z,14.70
2023-01-11T12:18:39.329Z,14.67
2023-01-11T12:19:39.307Z,14.62
2023-01-11T12:20:39.299Z,14.53
2023-01-11T12:21:39.280Z,14.51
2023-01-11T12:22:39.260Z,14.48
2023-01-11T12:23:39.269Z,14.44
2023-01-11T12:24:39.238Z,14.38
2023-01-11T12:25:39.228Z,14.37
2023-01-11T12:26:39.316Z,14.33
2023-01-11T12:27:39.217Z,14.30
2023-01-11T12:28:39.209Z,14.30
2023-01-11T12:29:39.211Z,14.30
2023-01-11T12:30:39.208Z,14.25
2023-01-11T12:31:39.181Z,14.26
2023-01-11T12:32:39.160Z,14.23
2023-01-11T12:33:39.160Z,14.20
2023-01-11T12:34:39.139Z,14.18
2023-01-11T12:35:39.128Z,14.18
2023-01-11T12:36:39.117Z,14.13
2023-01-11T12:37:39.110Z,14.20
2023-01-11T12:38:39.144Z,14.23
2023-01-11T12:39:39.079Z,14.26
2023-01-11T12:40:39.079Z,14.28
2023-01-11T12:41:39.083Z,14.28
2023-01-11T12:42:39.046Z,14.26
2023-01-11T12:43:39.076Z,14.30
2023-01-11T12:44:39.027Z,14.34
2023-01-11T12:45:39.017Z,14.38
2023-01-11T12:46:38.998Z,14.41
2023-01-11T12:47:39.112Z,14.40
2023-01-11T12:48:39.010Z,14.43
2023-01-11T12:49:39.011Z,14.51
2023-01-11T12:51:38.973Z,14.96
2023-01-11T12:52:38.944Z,15.27
2023-01-11T12:53:38.956Z,15.33
2023-01-11T12:54:38.918Z,15.27
2023-01-11T12:55:38.918Z,15.18
2023-01-11T12:56:38.896Z,15.08
2023-01-11T12:57:38.892Z,14.90
2023-01-11T12:58:38.976Z,14.79
2023-01-11T12:59:38.909Z,14.86
2023-01-11T13:00:38.875Z,14.92
2023-01-11T13:01:38.881Z,15.07
2023-01-11T13:02:39.738Z,15.02
2023-01-11T13:03:38.848Z,15.25